sensor_id;sensor_type;location;lat;lon;timestamp;P1;durP1;ratioP1;P2;durP2;ratioP2
35975;SDS011;22055;0.000;0.000;2022-11-10T00:00:30;15.88;;;3.83;;
35975;SDS011;22055;0.000;0.000;2022-11-10T00:03:01;14.50;;;3.53;;
35975;SDS011;22055;0.000;0.000;2022-11-10T00:05:31;17.02;;;3.25;;
35975;SDS011;22055;0.000;0.000;2022-11-10T00:08:03;11.90;;;3.70;;
35975;SDS011;22055;0.000;0.000;2022-11-10T00:10:32;13.13;;;3.45;;
35975;SDS011;22055;0.000;0.000;2022-11-10T00:13:20;9.88;;;3.60;;
35975;SDS011;22055;0.000;0.000;2022-11-10T00:15:48;15.15;;;3.38;;
35975;SDS011;22055;0.000;0.000;2022-11-10T00:18:34;11.27;;;3.45;;
35975;SDS011;22055;0.000;0.000;2022-11-10T00:21:04;7.95;;;3.22;;
35975;SDS011;22055;0.000;0.000;2022-11-10T00:23:32;15.65;;;4.15;;
35975;SDS011;22055;0.000;0.000;2022-11-10T00:26:00;10.70;;;2.95;;
35975;SDS011;22055;0.000;0.000;2022-11-10T00:28:30;8.52;;;3.00;;
35975;SDS011;22055;0.000;0.000;2022-11-10T00:31:00;12.45;;;3.15;;
35975;SDS011;22055;0.000;0.000;2022-11-10T00:33:35;9.45;;;3.60;;
35975;SDS011;22055;0.000;0.000;2022-11-10T00:36:03;10.68;;;3.22;;
35975;SDS011;22055;0.000;0.000;2022-11-10T00:38:39;11.15;;;3.70;;
35975;SDS011;22055;0.000;0.000;2022-11-10T00:41:08;8.90;;;3.13;;
35975;SDS011;22055;0.000;0.000;2022-11-10T00:43:39;11.35;;;3.00;;
35975;SDS011;22055;0.000;0.000;2022-11-10T00:46:08;9.13;;;3.25;;
35975;SDS011;22055;0.000;0.000;2022-11-10T00:48:36;8.50;;;2.58;;
35975;SDS011;22055;0.000;0.000;2022-11-10T00:51:05;8.52;;;3.38;;
35975;SDS011;22055;0.000;0.000;2022-11-10T00:53:34;8.30;;;3.17;;
35975;SDS011;22055;0.000;0.000;2022-11-10T00:56:05;10.15;;;3.25;;
35975;SDS011;22055;0.000;0.000;2022-11-10T00:58:33;13.77;;;3.20;;
35975;SDS011;22055;0.000;0.000;2022-11-10T01:01:03;7.15;;;2.70;;
35975;SDS011;22055;0.000;0.000;2022-11-10T01:03:32;7.85;;;2.72;;
35975;SDS011;22055;0.000;0.000;2022-11-10T01:06:07;11.40;;;3.30;;
35975;SDS011;22055;0.000;0.000;2022-11-10T01:08:36;7.97;;;2.65;;
35975;SDS011;22055;0.000;0.000;2022-11-10T01:11:06;9.32;;;3.42;;
35975;SDS011;22055;0.000;0.000;2022-11-10T01:13:35;6.75;;;2.60;;
35975;SDS011;22055;0.000;0.000;2022-11-10T01:16:08;8.43;;;3.22;;
35975;SDS011;22055;0.000;0.000;2022-11-10T01:18:36;9.13;;;3.33;;
35975;SDS011;22055;0.000;0.000;2022-11-10T01:21:05;8.20;;;2.72;;
35975;SDS011;22055;0.000;0.000;2022-11-10T01:23:33;7.13;;;2.90;;
35975;SDS011;22055;0.000;0.000;2022-11-10T01:26:04;6.20;;;3.28;;
35975;SDS011;22055;0.000;0.000;2022-11-10T01:28:37;9.90;;;3.13;;
35975;SDS011;22055;0.000;0.000;2022-11-10T01:31:07;5.88;;;3.20;;
35975;SDS011;22055;0.000;0.000;2022-11-10T01:33:35;6.03;;;2.53;;
35975;SDS011;22055;0.000;0.000;2022-11-10T01:36:11;7.40;;;2.70;;
35975;SDS011;22055;0.000;0.000;2022-11-10T01:38:48;7.07;;;3.83;;
35975;SDS011;22055;0.000;0.000;2022-11-10T01:41:34;8.50;;;3.03;;
35975;SDS011;22055;0.000;0.000;2022-11-10T01:47:02;7.28;;;2.65;;
35975;SDS011;22055;0.000;0.000;2022-11-10T01:49:31;7.55;;;4.00;;
35975;SDS011;22055;0.000;0.000;2022-11-10T01:52:08;6.43;;;2.85;;
35975;SDS011;22055;0.000;0.000;2022-11-10T01:54:47;8.38;;;2.83;;
35975;SDS011;22055;0.000;0.000;2022-11-10T01:57:15;7.68;;;2.83;;
35975;SDS011;22055;0.000;0.000;2022-11-10T01:59:47;6.80;;;2.40;;
35975;SDS011;22055;0.000;0.000;2022-11-10T02:02:28;5.57;;;2.95;;
35975;SDS011;22055;0.000;0.000;2022-11-10T02:05:01;7.80;;;3.40;;
35975;SDS011;22055;0.000;0.000;2022-11-10T02:07:31;6.32;;;3.03;;
35975;SDS011;22055;0.000;0.000;2022-11-10T02:10:03;9.68;;;2.90;;
35975;SDS011;22055;0.000;0.000;2022-11-10T02:12:31;6.53;;;2.72;;
35975;SDS011;22055;0.000;0.000;2022-11-10T02:15:07;7.13;;;2.92;;
35975;SDS011;22055;0.000;0.000;2022-11-10T02:17:35;6.10;;;2.60;;
35975;SDS011;22055;0.000;0.000;2022-11-10T02:20:08;7.13;;;2.92;;
35975;SDS011;22055;0.000;0.000;2022-11-10T02:22:37;4.43;;;2.83;;
35975;SDS011;22055;0.000;0.000;2022-11-10T02:25:20;8.18;;;2.58;;
35975;SDS011;22055;0.000;0.000;2022-11-10T02:28:14;6.38;;;2.65;;
35975;SDS011;22055;0.000;0.000;2022-11-10T02:30:45;6.90;;;2.90;;
35975;SDS011;22055;0.000;0.000;2022-11-10T02:33:16;6.18;;;2.55;;
35975;SDS011;22055;0.000;0.000;2022-11-10T02:35:44;4.88;;;2.67;;
35975;SDS011;22055;0.000;0.000;2022-11-10T02:38:13;6.40;;;2.22;;
35975;SDS011;22055;0.000;0.000;2022-11-10T02:40:42;3.67;;;2.67;;
35975;SDS011;22055;0.000;0.000;2022-11-10T02:43:11;8.73;;;2.90;;
35975;SDS011;22055;0.000;0.000;2022-11-10T02:45:41;7.93;;;3.00;;
35975;SDS011;22055;0.000;0.000;2022-11-10T02:48:17;6.75;;;4.10;;
35975;SDS011;22055;0.000;0.000;2022-11-10T02:50:45;4.30;;;2.42;;
35975;SDS011;22055;0.000;0.000;2022-11-10T02:53:13;4.82;;;2.67;;
35975;SDS011;22055;0.000;0.000;2022-11-10T02:55:41;6.38;;;2.88;;
35975;SDS011;22055;0.000;0.000;2022-11-10T02:58:10;5.88;;;2.42;;
35975;SDS011;22055;0.000;0.000;2022-11-10T03:00:38;4.95;;;2.53;;
35975;SDS011;22055;0.000;0.000;2022-11-10T03:03:06;3.92;;;2.20;;
35975;SDS011;22055;0.000;0.000;2022-11-10T03:05:34;8.68;;;3.75;;
35975;SDS011;22055;0.000;0.000;2022-11-10T03:08:03;5.50;;;2.60;;
35975;SDS011;22055;0.000;0.000;2022-11-10T03:10:32;6.50;;;2.83;;
35975;SDS011;22055;0.000;0.000;2022-11-10T03:16:09;5.82;;;3.08;;
35975;SDS011;22055;0.000;0.000;2022-11-10T03:18:53;6.90;;;2.47;;
35975;SDS011;22055;0.000;0.000;2022-11-10T03:21:20;6.18;;;2.20;;
35975;SDS011;22055;0.000;0.000;2022-11-10T03:24:10;5.20;;;2.10;;
35975;SDS011;22055;0.000;0.000;2022-11-10T03:26:38;3.65;;;2.03;;
35975;SDS011;22055;0.000;0.000;2022-11-10T03:29:06;6.20;;;2.72;;
35975;SDS011;22055;0.000;0.000;2022-11-10T03:31:34;5.32;;;2.20;;
35975;SDS011;22055;0.000;0.000;2022-11-10T03:34:03;7.20;;;2.55;;
35975;SDS011;22055;0.000;0.000;2022-11-10T03:36:31;5.25;;;2.30;;
35975;SDS011;22055;0.000;0.000;2022-11-10T03:38:58;7.30;;;2.20;;
35975;SDS011;22055;0.000;0.000;2022-11-10T03:44:14;6.30;;;2.13;;
35975;SDS011;22055;0.000;0.000;2022-11-10T03:46:43;3.08;;;1.80;;
35975;SDS011;22055;0.000;0.000;2022-11-10T03:49:11;5.93;;;2.83;;
35975;SDS011;22055;0.000;0.000;2022-11-10T03:51:39;5.07;;;2.17;;
35975;SDS011;22055;0.000;0.000;2022-11-10T04:00:39;5.00;;;1.73;;
35975;SDS011;22055;0.000;0.000;2022-11-10T04:03:05;4.60;;;1.80;;
35975;SDS011;22055;0.000;0.000;2022-11-10T04:05:31;3.00;;;1.42;;
35975;SDS011;22055;0.000;0.000;2022-11-10T04:08:16;4.70;;;1.60;;
35975;SDS011;22055;0.000;0.000;2022-11-10T04:11:02;4.47;;;2.28;;
35975;SDS011;22055;0.000;0.000;2022-11-10T04:13:28;7.05;;;1.80;;
35975;SDS011;22055;0.000;0.000;2022-11-10T04:16:13;3.85;;;1.60;;
35975;SDS011;22055;0.000;0.000;2022-11-10T04:18:39;4.22;;;1.50;;
35975;SDS011;22055;0.000;0.000;2022-11-10T04:21:06;3.28;;;1.20;;
35975;SDS011;22055;0.000;0.000;2022-11-10T04:23:32;4.82;;;1.60;;
35975;SDS011;22055;0.000;0.000;2022-11-10T04:28:47;5.32;;;1.70;;
35975;SDS011;22055;0.000;0.000;2022-11-10T04:31:14;4.53;;;1.58;;
35975;SDS011;22055;0.000;0.000;2022-11-10T04:33:40;4.90;;;1.70;;
35975;SDS011;22055;0.000;0.000;2022-11-10T04:36:07;5.82;;;1.88;;
35975;SDS011;22055;0.000;0.000;2022-11-10T04:38:34;15.35;;;3.30;;
35975;SDS011;22055;0.000;0.000;2022-11-10T04:41:00;15.63;;;4.05;;
35975;SDS011;22055;0.000;0.000;2022-11-10T04:43:27;9.85;;;2.88;;
35975;SDS011;22055;0.000;0.000;2022-11-10T04:45:53;8.60;;;2.53;;
35975;SDS011;22055;0.000;0.000;2022-11-10T04:48:19;13.85;;;2.95;;
35975;SDS011;22055;0.000;0.000;2022-11-10T04:50:46;6.07;;;1.70;;
35975;SDS011;22055;0.000;0.000;2022-11-10T04:53:12;7.07;;;2.25;;
35975;SDS011;22055;0.000;0.000;2022-11-10T04:55:42;11.15;;;2.30;;
35975;SDS011;22055;0.000;0.000;2022-11-10T04:58:08;10.98;;;2.63;;
35975;SDS011;22055;0.000;0.000;2022-11-10T05:00:34;12.90;;;2.80;;
35975;SDS011;22055;0.000;0.000;2022-11-10T05:03:01;16.38;;;3.17;;
35975;SDS011;22055;0.000;0.000;2022-11-10T05:21:12;8.60;;;1.95;;
35975;SDS011;22055;0.000;0.000;2022-11-10T05:23:38;9.82;;;2.15;;
35975;SDS011;22055;0.000;0.000;2022-11-10T05:26:09;4.70;;;1.70;;
35975;SDS011;22055;0.000;0.000;2022-11-10T05:28:36;5.63;;;1.92;;
35975;SDS011;22055;0.000;0.000;2022-11-10T05:31:02;7.85;;;1.90;;
35975;SDS011;22055;0.000;0.000;2022-11-10T05:33:29;7.78;;;2.00;;
35975;SDS011;22055;0.000;0.000;2022-11-10T05:35:56;7.70;;;2.03;;
35975;SDS011;22055;0.000;0.000;2022-11-10T05:38:22;7.57;;;2.20;;
35975;SDS011;22055;0.000;0.000;2022-11-10T05:40:48;8.85;;;2.80;;
35975;SDS011;22055;0.000;0.000;2022-11-10T05:43:14;16.05;;;2.72;;
35975;SDS011;22055;0.000;0.000;2022-11-10T05:45:41;9.07;;;2.50;;
35975;SDS011;22055;0.000;0.000;2022-11-10T05:48:07;15.70;;;3.15;;
35975;SDS011;22055;0.000;0.000;2022-11-10T05:50:33;14.40;;;2.88;;
35975;SDS011;22055;0.000;0.000;2022-11-10T05:53:00;12.23;;;2.33;;
35975;SDS011;22055;0.000;0.000;2022-11-10T05:55:26;16.73;;;2.88;;
35975;SDS011;22055;0.000;0.000;2022-11-10T05:57:54;13.52;;;2.45;;
35975;SDS011;22055;0.000;0.000;2022-11-10T06:03:16;4.50;;;1.65;;
35975;SDS011;22055;0.000;0.000;2022-11-10T06:05:43;10.60;;;2.60;;
35975;SDS011;22055;0.000;0.000;2022-11-10T06:08:09;11.32;;;2.38;;
35975;SDS011;22055;0.000;0.000;2022-11-10T06:10:36;13.82;;;2.75;;
35975;SDS011;22055;0.000;0.000;2022-11-10T06:13:03;19.65;;;2.65;;
35975;SDS011;22055;0.000;0.000;2022-11-10T06:15:29;20.80;;;2.70;;
35975;SDS011;22055;0.000;0.000;2022-11-10T06:17:55;10.65;;;2.33;;
35975;SDS011;22055;0.000;0.000;2022-11-10T06:20:23;12.65;;;2.70;;
35975;SDS011;22055;0.000;0.000;2022-11-10T06:23:00;17.73;;;3.38;;
35975;SDS011;22055;0.000;0.000;2022-11-10T06:25:27;16.88;;;2.40;;
35975;SDS011;22055;0.000;0.000;2022-11-10T06:27:54;20.38;;;3.35;;
35975;SDS011;22055;0.000;0.000;2022-11-10T06:36:27;26.02;;;2.90;;
35975;SDS011;22055;0.000;0.000;2022-11-10T06:38:53;18.55;;;2.92;;
35975;SDS011;22055;0.000;0.000;2022-11-10T06:41:19;21.80;;;3.72;;
35975;SDS011;22055;0.000;0.000;2022-11-10T06:43:45;17.33;;;3.00;;
35975;SDS011;22055;0.000;0.000;2022-11-10T06:46:12;13.52;;;2.50;;
35975;SDS011;22055;0.000;0.000;2022-11-10T06:48:38;17.63;;;3.50;;
35975;SDS011;22055;0.000;0.000;2022-11-10T06:51:04;13.43;;;2.38;;
35975;SDS011;22055;0.000;0.000;2022-11-10T06:56:47;19.73;;;2.83;;
35975;SDS011;22055;0.000;0.000;2022-11-10T06:59:14;16.48;;;2.80;;
35975;SDS011;22055;0.000;0.000;2022-11-10T07:01:40;20.35;;;3.53;;
35975;SDS011;22055;0.000;0.000;2022-11-10T07:04:07;26.48;;;3.90;;
35975;SDS011;22055;0.000;0.000;2022-11-10T07:06:33;30.00;;;4.18;;
35975;SDS011;22055;0.000;0.000;2022-11-10T07:08:59;24.73;;;3.60;;
35975;SDS011;22055;0.000;0.000;2022-11-10T07:11:26;20.05;;;3.65;;
35975;SDS011;22055;0.000;0.000;2022-11-10T07:13:52;19.67;;;3.50;;
35975;SDS011;22055;0.000;0.000;2022-11-10T07:19:28;23.98;;;3.25;;
35975;SDS011;22055;0.000;0.000;2022-11-10T07:21:56;9.55;;;2.70;;
35975;SDS011;22055;0.000;0.000;2022-11-10T07:27:33;12.95;;;2.67;;
35975;SDS011;22055;0.000;0.000;2022-11-10T07:30:00;13.85;;;3.33;;
35975;SDS011;22055;0.000;0.000;2022-11-10T07:32:27;22.88;;;3.03;;
35975;SDS011;22055;0.000;0.000;2022-11-10T07:34:54;16.65;;;3.50;;
35975;SDS011;22055;0.000;0.000;2022-11-10T07:37:20;17.45;;;3.17;;
35975;SDS011;22055;0.000;0.000;2022-11-10T07:39:47;14.73;;;3.47;;
35975;SDS011;22055;0.000;0.000;2022-11-10T07:42:13;32.15;;;5.82;;
35975;SDS011;22055;0.000;0.000;2022-11-10T07:44:39;26.88;;;4.13;;
35975;SDS011;22055;0.000;0.000;2022-11-10T07:47:06;28.17;;;4.05;;
35975;SDS011;22055;0.000;0.000;2022-11-10T07:49:32;22.73;;;3.88;;
35975;SDS011;22055;0.000;0.000;2022-11-10T07:51:58;25.05;;;3.72;;
35975;SDS011;22055;0.000;0.000;2022-11-10T08:22:48;32.83;;;4.70;;
35975;SDS011;22055;0.000;0.000;2022-11-10T08:25:15;26.02;;;3.97;;
35975;SDS011;22055;0.000;0.000;2022-11-10T08:30:32;19.38;;;3.92;;
35975;SDS011;22055;0.000;0.000;2022-11-10T08:39:13;27.83;;;4.22;;
35975;SDS011;22055;0.000;0.000;2022-11-10T08:41:39;34.15;;;5.18;;
35975;SDS011;22055;0.000;0.000;2022-11-10T08:50:10;29.17;;;5.05;;
35975;SDS011;22055;0.000;0.000;2022-11-10T08:55:43;29.83;;;3.58;;
35975;SDS011;22055;0.000;0.000;2022-11-10T08:58:19;29.77;;;4.63;;
35975;SDS011;22055;0.000;0.000;2022-11-10T09:00:46;32.33;;;4.53;;
35975;SDS011;22055;0.000;0.000;2022-11-10T09:03:15;36.22;;;4.80;;
35975;SDS011;22055;0.000;0.000;2022-11-10T09:05:43;40.28;;;4.70;;
35975;SDS011;22055;0.000;0.000;2022-11-10T09:08:10;29.35;;;4.75;;
35975;SDS011;22055;0.000;0.000;2022-11-10T09:10:40;30.88;;;4.55;;
35975;SDS011;22055;0.000;0.000;2022-11-10T09:22:30;66.47;;;7.93;;
35975;SDS011;22055;0.000;0.000;2022-11-10T09:24:57;56.08;;;6.55;;
35975;SDS011;22055;0.000;0.000;2022-11-10T09:27:23;76.38;;;9.10;;
35975;SDS011;22055;0.000;0.000;2022-11-10T09:29:49;56.15;;;7.30;;
35975;SDS011;22055;0.000;0.000;2022-11-10T09:32:15;37.97;;;4.30;;
35975;SDS011;22055;0.000;0.000;2022-11-10T09:41:04;51.05;;;6.45;;
35975;SDS011;22055;0.000;0.000;2022-11-10T09:43:47;27.13;;;4.60;;
35975;SDS011;22055;0.000;0.000;2022-11-10T09:46:25;32.33;;;4.80;;
35975;SDS011;22055;0.000;0.000;2022-11-10T09:48:54;22.70;;;4.25;;
35975;SDS011;22055;0.000;0.000;2022-11-10T09:51:25;22.10;;;3.92;;
35975;SDS011;22055;0.000;0.000;2022-11-10T09:53:56;23.70;;;4.10;;
35975;SDS011;22055;0.000;0.000;2022-11-10T09:56:30;31.73;;;3.92;;
35975;SDS011;22055;0.000;0.000;2022-11-10T10:23:45;16.33;;;3.97;;
35975;SDS011;22055;0.000;0.000;2022-11-10T10:26:26;31.30;;;4.68;;
35975;SDS011;22055;0.000;0.000;2022-11-10T10:29:24;25.02;;;4.60;;
35975;SDS011;22055;0.000;0.000;2022-11-10T10:32:29;32.83;;;5.00;;
35975;SDS011;22055;0.000;0.000;2022-11-10T10:35:22;30.35;;;6.57;;
35975;SDS011;22055;0.000;0.000;2022-11-10T10:38:02;23.50;;;5.10;;
35975;SDS011;22055;0.000;0.000;2022-11-10T10:43:46;25.90;;;4.63;;
35975;SDS011;22055;0.000;0.000;2022-11-10T10:46:47;16.13;;;3.80;;
35975;SDS011;22055;0.000;0.000;2022-11-10T11:02:38;25.50;;;5.07;;
35975;SDS011;22055;0.000;0.000;2022-11-10T11:05:12;16.50;;;5.45;;
35975;SDS011;22055;0.000;0.000;2022-11-10T11:11:09;26.13;;;4.25;;
35975;SDS011;22055;0.000;0.000;2022-11-10T11:13:52;28.33;;;4.95;;
35975;SDS011;22055;0.000;0.000;2022-11-10T11:16:23;30.55;;;6.95;;
35975;SDS011;22055;0.000;0.000;2022-11-10T11:19:02;20.67;;;5.22;;
35975;SDS011;22055;0.000;0.000;2022-11-10T11:43:42;24.42;;;4.55;;
35975;SDS011;22055;0.000;0.000;2022-11-10T12:07:54;15.73;;;3.40;;
35975;SDS011;22055;0.000;0.000;2022-11-10T12:16:06;17.15;;;4.45;;
35975;SDS011;22055;0.000;0.000;2022-11-10T12:18:51;15.13;;;4.13;;
35975;SDS011;22055;0.000;0.000;2022-11-10T12:37:27;13.57;;;2.83;;
35975;SDS011;22055;0.000;0.000;2022-11-10T12:46:45;15.73;;;2.65;;
35975;SDS011;22055;0.000;0.000;2022-11-10T13:14:56;10.60;;;3.55;;
35975;SDS011;22055;0.000;0.000;2022-11-10T13:36:48;8.75;;;2.97;;
35975;SDS011;22055;0.000;0.000;2022-11-10T13:39:15;12.52;;;2.97;;
35975;SDS011;22055;0.000;0.000;2022-11-10T13:44:28;10.65;;;2.30;;
35975;SDS011;22055;0.000;0.000;2022-11-10T13:50:26;10.50;;;2.53;;
35975;SDS011;22055;0.000;0.000;2022-11-10T13:53:14;22.30;;;3.10;;
35975;SDS011;22055;0.000;0.000;2022-11-10T13:55:49;11.85;;;2.50;;
35975;SDS011;22055;0.000;0.000;2022-11-10T13:58:18;7.55;;;2.45;;
35975;SDS011;22055;0.000;0.000;2022-11-10T14:00:49;10.27;;;2.70;;
35975;SDS011;22055;0.000;0.000;2022-11-10T14:06:40;10.77;;;2.10;;
35975;SDS011;22055;0.000;0.000;2022-11-10T14:09:11;13.95;;;2.88;;
35975;SDS011;22055;0.000;0.000;2022-11-10T14:11:43;13.27;;;2.47;;
35975;SDS011;22055;0.000;0.000;2022-11-10T14:14:16;27.85;;;4.72;;
35975;SDS011;22055;0.000;0.000;2022-11-10T14:16:43;8.23;;;2.55;;
35975;SDS011;22055;0.000;0.000;2022-11-10T14:21:41;15.32;;;3.35;;
35975;SDS011;22055;0.000;0.000;2022-11-10T14:24:11;20.55;;;3.58;;
35975;SDS011;22055;0.000;0.000;2022-11-10T14:26:41;24.30;;;3.78;;
35975;SDS011;22055;0.000;0.000;2022-11-10T14:32:21;22.75;;;3.47;;
35975;SDS011;22055;0.000;0.000;2022-11-10T14:34:51;15.20;;;3.47;;
35975;SDS011;22055;0.000;0.000;2022-11-10T14:37:21;17.67;;;3.65;;
35975;SDS011;22055;0.000;0.000;2022-11-10T14:39:48;25.15;;;4.28;;
35975;SDS011;22055;0.000;0.000;2022-11-10T14:42:18;32.05;;;4.13;;
35975;SDS011;22055;0.000;0.000;2022-11-10T14:44:45;31.77;;;5.07;;
35975;SDS011;22055;0.000;0.000;2022-11-10T14:47:23;52.58;;;7.35;;
35975;SDS011;22055;0.000;0.000;2022-11-10T14:50:35;22.05;;;3.78;;
35975;SDS011;22055;0.000;0.000;2022-11-10T14:55:46;20.00;;;4.15;;
35975;SDS011;22055;0.000;0.000;2022-11-10T15:01:27;30.38;;;4.57;;
35975;SDS011;22055;0.000;0.000;2022-11-10T15:03:58;31.92;;;4.20;;
35975;SDS011;22055;0.000;0.000;2022-11-10T15:12:20;29.45;;;4.20;;
35975;SDS011;22055;0.000;0.000;2022-11-10T15:14:54;36.25;;;5.85;;
35975;SDS011;22055;0.000;0.000;2022-11-10T15:17:41;31.98;;;5.05;;
35975;SDS011;22055;0.000;0.000;2022-11-10T15:25:56;39.85;;;5.07;;
35975;SDS011;22055;0.000;0.000;2022-11-10T15:30:53;24.75;;;4.25;;
35975;SDS011;22055;0.000;0.000;2022-11-10T15:42:06;41.53;;;5.85;;
35975;SDS011;22055;0.000;0.000;2022-11-10T15:47:46;35.17;;;4.72;;
35975;SDS011;22055;0.000;0.000;2022-11-10T15:56:39;30.90;;;5.85;;
35975;SDS011;22055;0.000;0.000;2022-11-10T15:59:13;29.98;;;6.05;;
35975;SDS011;22055;0.000;0.000;2022-11-10T16:05:16;34.08;;;5.47;;
35975;SDS011;22055;0.000;0.000;2022-11-10T16:08:21;27.92;;;4.07;;
35975;SDS011;22055;0.000;0.000;2022-11-10T16:11:02;21.80;;;4.72;;
35975;SDS011;22055;0.000;0.000;2022-11-10T16:13:59;30.52;;;5.00;;
35975;SDS011;22055;0.000;0.000;2022-11-10T16:22:53;20.45;;;3.45;;
35975;SDS011;22055;0.000;0.000;2022-11-10T16:34:50;26.92;;;3.50;;
35975;SDS011;22055;0.000;0.000;2022-11-10T16:43:23;25.75;;;3.90;;
35975;SDS011;22055;0.000;0.000;2022-11-10T16:45:51;30.00;;;4.70;;
35975;SDS011;22055;0.000;0.000;2022-11-10T16:48:19;42.33;;;4.68;;
35975;SDS011;22055;0.000;0.000;2022-11-10T17:02:36;32.03;;;4.88;;
35975;SDS011;22055;0.000;0.000;2022-11-10T17:05:03;31.95;;;4.75;;
35975;SDS011;22055;0.000;0.000;2022-11-10T17:10:40;43.45;;;6.13;;
35975;SDS011;22055;0.000;0.000;2022-11-10T17:13:08;42.90;;;5.93;;
35975;SDS011;22055;0.000;0.000;2022-11-10T17:15:34;48.97;;;5.15;;
35975;SDS011;22055;0.000;0.000;2022-11-10T17:18:01;37.22;;;5.97;;
35975;SDS011;22055;0.000;0.000;2022-11-10T17:26:18;52.38;;;6.15;;
35975;SDS011;22055;0.000;0.000;2022-11-10T17:28:44;42.90;;;5.30;;
35975;SDS011;22055;0.000;0.000;2022-11-10T17:31:10;50.85;;;5.50;;
35975;SDS011;22055;0.000;0.000;2022-11-10T17:52:26;37.75;;;5.18;;
35975;SDS011;22055;0.000;0.000;2022-11-10T17:54:52;49.13;;;5.70;;
35975;SDS011;22055;0.000;0.000;2022-11-10T17:57:18;28.77;;;4.97;;
35975;SDS011;22055;0.000;0.000;2022-11-10T18:05:59;31.15;;;4.60;;
35975;SDS011;22055;0.000;0.000;2022-11-10T18:08:25;26.17;;;3.33;;
35975;SDS011;22055;0.000;0.000;2022-11-10T18:10:51;16.92;;;3.78;;
35975;SDS011;22055;0.000;0.000;2022-11-10T18:13:17;27.33;;;4.38;;
35975;SDS011;22055;0.000;0.000;2022-11-10T18:15:44;27.63;;;3.40;;
35975;SDS011;22055;0.000;0.000;2022-11-10T18:18:11;29.23;;;4.00;;
35975;SDS011;22055;0.000;0.000;2022-11-10T18:20:38;31.67;;;4.50;;
35975;SDS011;22055;0.000;0.000;2022-11-10T18:23:04;21.13;;;3.75;;
35975;SDS011;22055;0.000;0.000;2022-11-10T18:25:32;28.35;;;4.03;;
35975;SDS011;22055;0.000;0.000;2022-11-10T18:31:12;30.70;;;3.65;;
35975;SDS011;22055;0.000;0.000;2022-11-10T18:33:39;23.63;;;3.15;;
35975;SDS011;22055;0.000;0.000;2022-11-10T18:36:06;25.98;;;3.28;;
35975;SDS011;22055;0.000;0.000;2022-11-10T18:38:32;26.50;;;3.53;;
35975;SDS011;22055;0.000;0.000;2022-11-10T18:41:00;21.38;;;3.47;;
35975;SDS011;22055;0.000;0.000;2022-11-10T18:43:46;22.27;;;3.10;;
35975;SDS011;22055;0.000;0.000;2022-11-10T18:46:13;20.60;;;3.72;;
35975;SDS011;22055;0.000;0.000;2022-11-10T18:48:39;23.95;;;3.58;;
35975;SDS011;22055;0.000;0.000;2022-11-10T18:51:05;19.80;;;3.15;;
35975;SDS011;22055;0.000;0.000;2022-11-10T18:53:32;20.98;;;3.80;;
35975;SDS011;22055;0.000;0.000;2022-11-10T18:58:50;21.48;;;2.90;;
35975;SDS011;22055;0.000;0.000;2022-11-10T19:01:16;23.75;;;3.47;;
35975;SDS011;22055;0.000;0.000;2022-11-10T19:06:46;18.48;;;2.85;;
35975;SDS011;22055;0.000;0.000;2022-11-10T19:09:12;23.35;;;2.95;;
35975;SDS011;22055;0.000;0.000;2022-11-10T19:11:38;18.50;;;3.08;;
35975;SDS011;22055;0.000;0.000;2022-11-10T19:14:05;18.20;;;2.92;;
35975;SDS011;22055;0.000;0.000;2022-11-10T19:16:31;15.23;;;3.00;;
35975;SDS011;22055;0.000;0.000;2022-11-10T19:18:57;12.93;;;3.03;;
35975;SDS011;22055;0.000;0.000;2022-11-10T19:21:24;12.52;;;2.80;;
35975;SDS011;22055;0.000;0.000;2022-11-10T19:24:02;14.15;;;2.20;;
35975;SDS011;22055;0.000;0.000;2022-11-10T19:26:54;14.55;;;2.72;;
35975;SDS011;22055;0.000;0.000;2022-11-10T19:32:30;16.02;;;2.78;;
35975;SDS011;22055;0.000;0.000;2022-11-10T19:34:57;16.45;;;2.35;;
35975;SDS011;22055;0.000;0.000;2022-11-10T19:37:23;19.83;;;3.08;;
35975;SDS011;22055;0.000;0.000;2022-11-10T19:39:49;21.85;;;3.40;;
35975;SDS011;22055;0.000;0.000;2022-11-10T19:42:15;10.25;;;2.95;;
35975;SDS011;22055;0.000;0.000;2022-11-10T19:44:41;19.08;;;2.75;;
35975;SDS011;22055;0.000;0.000;2022-11-10T19:47:08;13.32;;;3.00;;
35975;SDS011;22055;0.000;0.000;2022-11-10T19:56:01;16.50;;;2.92;;
35975;SDS011;22055;0.000;0.000;2022-11-10T19:58:27;21.35;;;3.35;;
35975;SDS011;22055;0.000;0.000;2022-11-10T20:00:54;28.98;;;3.67;;
35975;SDS011;22055;0.000;0.000;2022-11-10T20:03:21;18.65;;;2.97;;
35975;SDS011;22055;0.000;0.000;2022-11-10T20:05:55;20.77;;;3.55;;
35975;SDS011;22055;0.000;0.000;2022-11-10T20:08:21;19.25;;;2.80;;
35975;SDS011;22055;0.000;0.000;2022-11-10T20:10:48;19.00;;;3.03;;
35975;SDS011;22055;0.000;0.000;2022-11-10T20:13:14;20.20;;;3.25;;
35975;SDS011;22055;0.000;0.000;2022-11-10T20:15:40;11.48;;;2.90;;
35975;SDS011;22055;0.000;0.000;2022-11-10T20:18:07;14.15;;;2.65;;
35975;SDS011;22055;0.000;0.000;2022-11-10T20:20:34;28.23;;;3.70;;
35975;SDS011;22055;0.000;0.000;2022-11-10T20:23:02;28.33;;;3.53;;
35975;SDS011;22055;0.000;0.000;2022-11-10T20:25:29;31.77;;;3.75;;
35975;SDS011;22055;0.000;0.000;2022-11-10T20:27:55;32.63;;;3.20;;
35975;SDS011;22055;0.000;0.000;2022-11-10T20:30:22;27.73;;;3.50;;
35975;SDS011;22055;0.000;0.000;2022-11-10T20:36:06;20.30;;;3.25;;
35975;SDS011;22055;0.000;0.000;2022-11-10T20:38:33;16.83;;;3.45;;
35975;SDS011;22055;0.000;0.000;2022-11-10T20:50:51;44.05;;;5.82;;
35975;SDS011;22055;0.000;0.000;2022-11-10T20:53:26;33.97;;;5.70;;
35975;SDS011;22055;0.000;0.000;2022-11-10T20:55:59;30.60;;;5.57;;
35975;SDS011;22055;0.000;0.000;2022-11-10T20:58:28;31.05;;;5.68;;
35975;SDS011;22055;0.000;0.000;2022-11-10T21:04:07;19.42;;;3.47;;
35975;SDS011;22055;0.000;0.000;2022-11-10T21:06:35;22.70;;;3.50;;
35975;SDS011;22055;0.000;0.000;2022-11-10T21:09:02;25.13;;;3.75;;
35975;SDS011;22055;0.000;0.000;2022-11-10T21:11:29;17.48;;;3.25;;
35975;SDS011;22055;0.000;0.000;2022-11-10T21:14:14;26.45;;;3.38;;
35975;SDS011;22055;0.000;0.000;2022-11-10T21:16:40;25.77;;;4.45;;
35975;SDS011;22055;0.000;0.000;2022-11-10T21:19:07;26.40;;;3.80;;
35975;SDS011;22055;0.000;0.000;2022-11-10T21:21:33;19.13;;;3.60;;
35975;SDS011;22055;0.000;0.000;2022-11-10T21:23:59;23.52;;;3.60;;
35975;SDS011;22055;0.000;0.000;2022-11-10T21:26:26;23.42;;;4.00;;
35975;SDS011;22055;0.000;0.000;2022-11-10T21:29:04;30.67;;;4.75;;
35975;SDS011;22055;0.000;0.000;2022-11-10T21:31:32;29.65;;;4.05;;
35975;SDS011;22055;0.000;0.000;2022-11-10T21:33:58;22.17;;;3.78;;
35975;SDS011;22055;0.000;0.000;2022-11-10T21:36:25;22.80;;;3.85;;
35975;SDS011;22055;0.000;0.000;2022-11-10T21:42:03;22.67;;;3.42;;
35975;SDS011;22055;0.000;0.000;2022-11-10T21:44:29;22.70;;;3.15;;
35975;SDS011;22055;0.000;0.000;2022-11-10T21:46:56;21.35;;;3.85;;
35975;SDS011;22055;0.000;0.000;2022-11-10T21:49:22;25.05;;;3.40;;
35975;SDS011;22055;0.000;0.000;2022-11-10T21:51:48;20.75;;;3.30;;
35975;SDS011;22055;0.000;0.000;2022-11-10T21:54:14;20.88;;;3.65;;
35975;SDS011;22055;0.000;0.000;2022-11-10T21:56:40;25.52;;;4.03;;
35975;SDS011;22055;0.000;0.000;2022-11-10T21:59:06;20.98;;;3.42;;
35975;SDS011;22055;0.000;0.000;2022-11-10T22:01:33;23.83;;;3.70;;
35975;SDS011;22055;0.000;0.000;2022-11-10T22:07:09;24.02;;;3.75;;
35975;SDS011;22055;0.000;0.000;2022-11-10T22:09:47;34.33;;;4.55;;
35975;SDS011;22055;0.000;0.000;2022-11-10T22:12:32;29.20;;;3.40;;
35975;SDS011;22055;0.000;0.000;2022-11-10T22:15:16;16.05;;;3.40;;
35975;SDS011;22055;0.000;0.000;2022-11-10T22:18:01;14.50;;;3.03;;
35975;SDS011;22055;0.000;0.000;2022-11-10T22:20:46;25.85;;;3.70;;
35975;SDS011;22055;0.000;0.000;2022-11-10T22:23:12;21.80;;;3.63;;
35975;SDS011;22055;0.000;0.000;2022-11-10T22:25:38;19.38;;;3.65;;
35975;SDS011;22055;0.000;0.000;2022-11-10T22:28:04;38.50;;;5.43;;
35975;SDS011;22055;0.000;0.000;2022-11-10T22:33:41;70.03;;;8.75;;